createdAt,value
2018-02-27T00:01:14.828Z,67.95
2018-02-27T00:03:43.096Z,68.20
2018-02-27T00:06:11.376Z,67.96
2018-02-27T00:08:39.655Z,68.36
2018-02-27T00:11:07.920Z,68.59
2018-02-27T00:13:36.208Z,68.47
2018-02-27T00:16:04.473Z,68.87
2018-02-27T00:18:32.745Z,68.68
2018-02-27T00:21:01.024Z,68.77
2018-02-27T00:23:29.293Z,69.25
2018-02-27T00:25:57.578Z,69.23
2018-02-27T00:28:25.853Z,69.36
2018-02-27T00:30:54.132Z,69.88
2018-02-27T00:33:22.505Z,69.65
2018-02-27T00:35:50.769Z,69.77
2018-02-27T00:38:19.054Z,69.86
2018-02-27T00:40:47.333Z,70.29
2018-02-27T00:43:15.614Z,70.66
2018-02-27T00:45:43.886Z,71.01
2018-02-27T00:48:12.147Z,71.08
2018-02-27T00:50:40.433Z,70.95
2018-02-27T00:53:08.717Z,71.18
2018-02-27T00:55:37.000Z,71.30
2018-02-27T00:58:05.284Z,71.35
2018-02-27T01:00:33.643Z,71.32
2018-02-27T01:03:01.934Z,71.06
2018-02-27T01:05:30.192Z,71.23
2018-02-27T01:07:58.461Z,71.34
2018-02-27T01:10:26.745Z,71.25
2018-02-27T01:12:55.004Z,71.23
2018-02-27T01:15:23.284Z,71.40
2018-02-27T01:17:51.547Z,71.43
2018-02-27T01:20:19.825Z,71.65
2018-02-27T01:22:48.885Z,71.63
2018-02-27T01:25:17.328Z,72.07
2018-02-27T01:27:45.603Z,71.91
2018-02-27T01:30:13.880Z,72.40
2018-02-27T01:32:42.157Z,73.74
2018-02-27T01:35:10.448Z,73.97
2018-02-27T01:37:38.720Z,74.57
2018-02-27T01:40:07.001Z,74.10
2018-02-27T01:42:35.280Z,73.98
2018-02-27T01:45:04.356Z,75.10
2018-02-27T01:47:32.644Z,75.17
2018-02-27T01:50:00.940Z,75.42
2018-02-27T01:52:29.287Z,75.20
2018-02-27T01:54:57.572Z,75.80
2018-02-27T01:57:25.842Z,75.55
2018-02-27T01:59:54.140Z,75.99
2018-02-27T02:02:22.403Z,76.59
2018-02-27T02:04:50.696Z,76.70
2018-02-27T02:07:18.963Z,76.83
2018-02-27T02:09:47.240Z,76.35
2018-02-27T02:12:15.512Z,76.22
2018-02-27T02:14:43.780Z,76.49
2018-02-27T02:17:12.148Z,76.06
2018-02-27T02:19:40.436Z,76.42
2018-02-27T02:22:08.717Z,76.18
2018-02-27T02:24:36.990Z,76.32
2018-02-27T02:27:05.269Z,76.82
2018-02-27T02:29:33.569Z,76.91
2018-02-27T02:32:01.833Z,76.91
2018-02-27T02:34:30.135Z,77.27
2018-02-27T02:36:59.172Z,77.92
2018-02-27T02:39:27.469Z,78.60
2018-02-27T02:55:37.839Z,79.45
2018-02-27T02:58:06.134Z,79.41
2018-02-27T03:00:35.273Z,79.25
2018-02-27T03:03:03.559Z,79.80
2018-02-27T03:05:31.824Z,80.43
2018-02-27T03:08:00.123Z,80.47
2018-02-27T03:10:28.416Z,80.65
2018-02-27T03:12:56.692Z,80.96
2018-02-27T03:15:24.968Z,80.69
2018-02-27T03:17:53.234Z,80.68
2018-02-27T03:20:21.533Z,80.31
2018-02-27T03:22:49.792Z,80.46
2018-02-27T03:25:18.067Z,80.28
2018-02-27T03:27:46.346Z,80.21
2018-02-27T03:30:14.644Z,79.78
2018-02-27T03:32:43.691Z,79.83
2018-02-27T03:35:11.972Z,79.75
2018-02-27T03:37:40.236Z,79.46
2018-02-27T03:40:08.516Z,79.59
2018-02-27T03:42:36.787Z,79.64
2018-02-27T03:45:06.304Z,80.09
2018-02-27T03:47:34.576Z,80.48
2018-02-27T03:50:02.841Z,80.40
2018-02-27T03:52:31.119Z,80.66
2018-02-27T03:54:59.391Z,81.09
2018-02-27T03:57:27.673Z,81.81
2018-02-27T03:59:56.048Z,81.70
2018-02-27T04:02:24.311Z,81.75
2018-02-27T04:04:52.592Z,82.39
2018-02-27T04:07:20.855Z,82.09
2018-02-27T04:09:49.134Z,81.64
2018-02-27T04:12:17.404Z,81.90
2018-02-27T04:14:45.679Z,82.82
2018-02-27T04:17:13.972Z,82.60
2018-02-27T04:19:42.236Z,82.67
2018-02-27T04:22:10.511Z,82.32
2018-02-27T04:24:38.787Z,82.27
2018-02-27T04:27:07.061Z,82.04
2018-02-27T04:29:35.334Z,82.80
2018-02-27T04:32:04.433Z,82.50
2018-02-27T04:34:32.704Z,82.24
2018-02-27T04:37:01.724Z,82.00
2018-02-27T04:39:30.015Z,82.59
2018-02-27T04:41:58.272Z,83.34
2018-02-27T04:44:26.648Z,82.91
2018-02-27T04:46:54.908Z,83.30
2018-02-27T04:49:23.175Z,83.61
2018-02-27T04:51:52.227Z,83.61
2018-02-27T04:54:20.489Z,83.58
2018-02-27T04:56:48.789Z,83.67
2018-02-27T04:59:17.056Z,83.53
2018-02-27T05:01:45.401Z,83.42
2018-02-27T05:04:13.701Z,83.96
2018-02-27T05:06:42.052Z,84.16
2018-02-27T05:09:10.339Z,83.56
2018-02-27T05:11:38.626Z,83.49
2018-02-27T05:14:06.911Z,83.40
2018-02-27T05:16:35.200Z,83.81
2018-02-27T05:19:03.544Z,84.27
2018-02-27T05:21:31.879Z,84.73
2018-02-27T05:24:00.915Z,85.11
2018-02-27T05:26:29.215Z,85.70
2018-02-27T05:28:57.488Z,85.55
2018-02-27T05:31:25.788Z,85.55
2018-02-27T05:33:54.050Z,84.93
2018-02-27T05:36:22.319Z,85.06
2018-02-27T05:38:50.621Z,84.79
2018-02-27T05:41:18.888Z,84.61
2018-02-27T05:43:47.170Z,84.82
2018-02-27T05:46:15.447Z,84.90
2018-02-27T05:48:43.708Z,84.63
2018-02-27T05:51:12.004Z,84.98
2018-02-27T05:53:41.028Z,84.65
2018-02-27T05:56:09.316Z,83.85
2018-02-27T05:58:37.573Z,83.66
2018-02-27T06:01:05.839Z,82.96
2018-02-27T06:03:34.890Z,83.19
2018-02-27T06:06:03.152Z,83.16
2018-02-27T06:08:31.414Z,82.95
2018-02-27T06:10:59.689Z,82.47
2018-02-27T06:13:27.948Z,82.56
2018-02-27T06:15:56.208Z,82.64
2018-02-27T06:18:25.265Z,82.52
2018-02-27T06:20:54.325Z,82.63
2018-02-27T06:23:22.597Z,82.29
2018-02-27T06:25:50.886Z,81.87
2018-02-27T06:28:19.147Z,81.88
2018-02-27T06:30:47.421Z,82.12
2018-02-27T06:33:15.688Z,82.00
2018-02-27T06:35:43.964Z,82.13
2018-02-27T06:38:12.254Z,81.98
2018-02-27T06:40:40.520Z,81.76
2018-02-27T06:43:08.787Z,81.84
2018-02-27T06:45:37.081Z,82.03
2018-02-27T06:48:05.346Z,82.09
2018-02-27T06:50:33.620Z,81.73
2018-02-27T06:53:01.905Z,81.73
2018-02-27T06:55:30.192Z,81.07
2018-02-27T06:57:58.458Z,80.34
2018-02-27T07:00:26.793Z,80.23
2018-02-27T07:02:55.941Z,79.73
2018-02-27T07:05:24.213Z,79.55
2018-02-27T07:07:52.498Z,79.20
2018-02-27T07:10:20.927Z,78.58
2018-02-27T07:12:49.148Z,78.23
2018-02-27T07:15:17.431Z,78.01
2018-02-27T07:17:45.767Z,77.96
2018-02-27T07:20:14.803Z,77.66
2018-02-27T07:22:43.173Z,77.51
2018-02-27T07:25:11.470Z,78.15
2018-02-27T07:27:39.760Z,77.97
2018-02-27T07:30:08.078Z,77.75
2018-02-27T07:32:36.295Z,77.79
2018-02-27T07:35:04.584Z,77.61
2018-02-27T07:37:32.868Z,77.21
2018-02-27T07:40:01.202Z,76.42
2018-02-27T07:42:29.480Z,75.92
2018-02-27T07:44:57.754Z,75.67
2018-02-27T07:47:26.028Z,74.71
2018-02-27T07:49:54.312Z,74.33
2018-02-27T07:52:22.585Z,73.60
2018-02-27T07:54:50.852Z,73.70
2018-02-27T07:57:19.129Z,73.11
2018-02-27T07:59:47.390Z,71.60
2018-02-27T08:02:15.684Z,71.16
2018-02-27T08:04:43.969Z,71.25
2018-02-27T08:07:12.236Z,70.83
2018-02-27T08:09:41.271Z,71.21
2018-02-27T08:12:09.563Z,70.48
2018-02-27T08:14:38.603Z,70.37
2018-02-27T08:17:06.855Z,70.16
2018-02-27T08:19:35.140Z,69.05
2018-02-27T08:22:03.444Z,68.79
2018-02-27T08:24:31.728Z,68.50
2018-02-27T08:27:00.081Z,69.00
2018-02-27T08:29:28.339Z,68.81
2018-02-27T08:31:56.604Z,69.76
2018-02-27T08:34:25.656Z,68.65
2018-02-27T08:36:53.911Z,69.44
2018-02-27T08:39:22.186Z,68.65
2018-02-27T08:41:50.476Z,67.30
2018-02-27T08:44:18.768Z,68.19
2018-02-27T08:46:47.032Z,68.69
2018-02-27T08:49:15.312Z,68.20
2018-02-27T08:51:43.580Z,67.76
2018-02-27T08:54:11.934Z,67.75
2018-02-27T08:56:40.210Z,66.83
2018-02-27T08:59:08.464Z,67.25
2018-02-27T09:01:37.511Z,66.04
2018-02-27T09:04:05.787Z,65.29
2018-02-27T09:06:34.090Z,65.04
2018-02-27T09:09:03.123Z,65.25
2018-02-27T09:11:31.424Z,65.19
2018-02-27T09:13:59.692Z,64.11
2018-02-27T09:16:27.955Z,63.94
2018-02-27T09:18:56.229Z,62.12
2018-02-27T09:21:24.484Z,61.22
2018-02-27T09:23:52.787Z,60.78
2018-02-27T09:26:21.868Z,60.75
2018-02-27T09:28:50.136Z,60.94
2018-02-27T09:31:18.432Z,58.07
2018-02-27T09:33:46.708Z,57.99
2018-02-27T09:36:14.964Z,58.68
2018-02-27T09:38:43.282Z,57.08
2018-02-27T09:41:11.636Z,56.82
2018-02-27T09:43:39.906Z,57.74
2018-02-27T09:46:08.172Z,58.24
2018-02-27T09:48:36.468Z,57.13
2018-02-27T09:51:04.738Z,55.68
2018-02-27T09:53:33.764Z,55.71
2018-02-27T09:56:02.047Z,55.90
2018-02-27T09:58:30.313Z,55.17
2018-02-27T10:00:58.590Z,55.36
2018-02-27T10:03:26.865Z,55.55
2018-02-27T10:05:55.221Z,57.53
2018-02-27T10:08:23.501Z,57.29
2018-02-27T10:10:51.882Z,55.97
2018-02-27T10:13:20.148Z,54.15
2018-02-27T10:15:48.404Z,55.02
2018-02-27T10:18:16.700Z,54.81
2018-02-27T10:20:45.801Z,55.85
2018-02-27T10:23:14.061Z,54.37
2018-02-27T10:25:42.342Z,53.00
2018-02-27T10:28:10.608Z,51.86
2018-02-27T10:30:38.898Z,51.87
2018-02-27T10:33:07.175Z,50.60
2018-02-27T10:35:35.559Z,49.69
2018-02-27T10:38:03.836Z,50.37
2018-02-27T10:40:32.117Z,48.71
2018-02-27T10:43:00.376Z,49.61
2018-02-27T10:45:28.636Z,49.42
2018-02-27T10:47:56.936Z,49.07
2018-02-27T10:50:25.214Z,48.88
2018-02-27T10:52:53.489Z,49.92
2018-02-27T10:55:21.764Z,49.02
2018-02-27T10:57:50.037Z,48.29
2018-02-27T11:00:23.776Z,46.97
2018-02-27T11:02:52.053Z,47.60
2018-02-27T11:05:20.316Z,47.73
2018-02-27T11:07:48.588Z,48.17
2018-02-27T11:10:16.861Z,47.72
2018-02-27T11:12:45.221Z,46.58
2018-02-27T11:15:13.503Z,48.68
2018-02-27T11:17:41.763Z,48.53
2018-02-27T11:20:10.028Z,45.17
2018-02-27T11:22:39.150Z,45.75
2018-02-27T11:25:07.428Z,45.21
2018-02-27T11:27:35.679Z,44.76
2018-02-27T11:30:03.960Z,45.10
2018-02-27T11:32:32.218Z,45.26
2018-02-27T11:35:01.345Z,45.78
2018-02-27T11:37:29.720Z,46.30
2018-02-27T11:39:57.976Z,46.73
2018-02-27T11:42:26.273Z,46.93
2018-02-27T11:44:54.575Z,46.61
2018-02-27T11:47:22.835Z,44.95
2018-02-27T11:49:51.097Z,45.38
2018-02-27T11:52:19.384Z,44.01
2018-02-27T11:54:47.638Z,44.33
2018-02-27T11:57:15.945Z,44.04
2018-02-27T11:59:44.228Z,44.42
2018-02-27T12:02:12.513Z,42.73
2018-02-27T12:04:40.780Z,44.08
2018-02-27T12:07:09.073Z,42.67
2018-02-27T12:09:37.336Z,43.03
2018-02-27T12:12:05.592Z,41.26
2018-02-27T12:14:33.856Z,41.50
2018-02-27T12:17:02.150Z,40.06
2018-02-27T12:19:30.400Z,40.91
2018-02-27T12:21:58.680Z,39.24
2018-02-27T12:24:26.936Z,40.07
2018-02-27T12:26:55.957Z,39.71
2018-02-27T12:29:24.232Z,39.98
2018-02-27T12:31:52.499Z,41.74
2018-02-27T12:34:20.755Z,40.38
2018-02-27T12:36:49.792Z,38.40
2018-02-27T12:39:18.156Z,38.73
2018-02-27T12:41:46.399Z,38.59
2018-02-27T12:44:15.431Z,37.63
2018-02-27T12:46:43.716Z,37.35
2018-02-27T12:49:11.992Z,36.55
2018-02-27T12:51:40.356Z,37.14
2018-02-27T12:54:08.611Z,36.96
2018-02-27T12:56:36.887Z,36.26
2018-02-27T12:59:05.912Z,36.76
2018-02-27T13:01:34.155Z,35.84
2018-02-27T13:04:02.400Z,34.93
2018-02-27T13:06:30.736Z,35.30
2018-02-27T13:08:59.003Z,36.17
2018-02-27T13:11:27.284Z,35.84
2018-02-27T13:13:55.552Z,34.10
2018-02-27T13:16:23.837Z,35.25
2018-02-27T13:18:52.085Z,34.49
2018-02-27T13:21:20.363Z,34.22
2018-02-27T13:23:49.480Z,34.28
2018-02-27T13:26:17.753Z,34.05
2018-02-27T13:28:46.025Z,34.30
2018-02-27T13:31:14.288Z,34.78
2018-02-27T13:33:43.321Z,33.88
2018-02-27T13:36:11.683Z,33.08
2018-02-27T13:38:39.954Z,32.89
2018-02-27T13:41:08.233Z,33.16
2018-02-27T13:43:36.504Z,32.99
2018-02-27T13:46:04.780Z,32.73
2018-02-27T13:48:33.084Z,32.21
2018-02-27T13:51:02.162Z,31.70
2018-02-27T13:53:30.424Z,31.46
2018-02-27T13:55:58.716Z,33.48
2018-02-27T13:58:26.943Z,32.77
2018-02-27T14:00:55.984Z,32.85
2018-02-27T14:03:24.248Z,32.77
2018-02-27T14:05:52.530Z,32.75
2018-02-27T14:08:20.916Z,33.97
2018-02-27T14:10:49.167Z,33.00
2018-02-27T14:13:17.457Z,32.58
2018-02-27T14:15:45.738Z,31.82
2018-02-27T14:18:13.993Z,31.84
2018-02-27T14:20:42.305Z,32.03
2018-02-27T14:23:10.576Z,31.53
2018-02-27T14:25:38.846Z,30.75
2018-02-27T14:28:07.103Z,31.05
2018-02-27T14:30:35.370Z,30.52
2018-02-27T14:33:03.657Z,30.97
2018-02-27T14:35:31.927Z,31.86
2018-02-27T14:38:00.198Z,31.18
2018-02-27T14:40:28.472Z,31.63
2018-02-27T14:42:57.509Z,31.41
2018-02-27T14:45:25.775Z,31.04
2018-02-27T14:47:54.036Z,30.93
2018-02-27T14:50:22.283Z,31.27
2018-02-27T14:52:51.315Z,29.20
2018-02-27T14:55:19.580Z,29.60
2018-02-27T14:57:47.845Z,29.53
2018-02-27T15:00:17.272Z,30.38
2018-02-27T15:02:45.520Z,28.94
2018-02-27T15:05:13.803Z,29.69
2018-02-27T15:07:42.053Z,30.01
2018-02-27T15:10:11.074Z,29.80
2018-02-27T15:12:39.340Z,29.93
2018-02-27T15:15:07.628Z,29.55
2018-02-27T15:17:35.908Z,29.74
2018-02-27T15:20:04.168Z,31.00
2018-02-27T15:22:32.424Z,31.14
2018-02-27T15:25:01.460Z,31.39
2018-02-27T15:27:29.715Z,30.29
2018-02-27T15:29:57.973Z,30.87
2018-02-27T15:32:27.016Z,30.82
2018-02-27T15:34:55.265Z,30.77
2018-02-27T15:37:23.532Z,31.48
2018-02-27T15:39:51.803Z,32.63
2018-02-27T15:42:20.821Z,32.33
2018-02-27T15:44:49.071Z,32.67
2018-02-27T15:47:18.184Z,32.29
2018-02-27T15:49:46.487Z,32.37
2018-02-27T15:52:14.724Z,33.04
2018-02-27T15:54:42.991Z,33.17
2018-02-27T15:57:12.016Z,33.60
2018-02-27T15:59:40.268Z,34.41
2018-02-27T16:02:08.561Z,35.03
2018-02-27T16:04:36.856Z,35.84
2018-02-27T16:07:05.104Z,37.21
2018-02-27T16:09:33.377Z,38.25
2018-02-27T16:12:01.679Z,39.21
2018-02-27T16:14:29.951Z,39.87
2018-02-27T16:16:58.206Z,40.21
2018-02-27T16:19:26.485Z,40.32
2018-02-27T16:21:54.751Z,42.44
2018-02-27T16:24:23.008Z,42.68
2018-02-27T16:26:52.157Z,42.71
2018-02-27T16:29:20.429Z,43.23
2018-02-27T16:31:48.702Z,43.93
2018-02-27T16:34:16.976Z,44.05
2018-02-27T16:36:45.312Z,44.25
2018-02-27T16:39:14.346Z,45.20
2018-02-27T16:41:42.622Z,45.28
2018-02-27T16:44:10.958Z,45.28
2018-02-27T16:46:40.602Z,45.96
2018-02-27T16:49:08.941Z,46.04
2018-02-27T16:51:37.980Z,46.57
2018-02-27T16:54:06.280Z,47.34
2018-02-27T16:56:34.620Z,47.56
2018-02-27T16:59:02.901Z,47.72
2018-02-27T17:01:31.172Z,47.60
2018-02-27T17:03:59.463Z,48.01
2018-02-27T17:06:27.780Z,48.26
2018-02-27T17:08:56.060Z,48.99
2018-02-27T17:11:24.344Z,48.82
2018-02-27T17:13:53.507Z,49.34
2018-02-27T17:16:21.861Z,49.42
2018-02-27T17:18:50.281Z,50.20
2018-02-27T17:21:19.084Z,50.67
2018-02-27T17:23:47.503Z,50.52
2018-02-27T17:26:16.091Z,51.25
2018-02-27T17:28:44.447Z,51.06
2018-02-27T17:31:14.297Z,51.59
2018-02-27T17:33:44.136Z,52.54
2018-02-27T17:36:14.171Z,53.40
2018-02-27T17:38:44.077Z,54.12
2018-02-27T17:41:14.259Z,54.44
2018-02-27T17:43:44.023Z,55.40
2018-02-27T17:46:13.856Z,56.08
2018-02-27T17:48:44.466Z,56.82
2018-02-27T17:51:14.332Z,57.69
2018-02-27T17:53:44.425Z,59.01
2018-02-27T17:56:15.089Z,59.74
2018-02-27T17:58:45.143Z,60.25
2018-02-27T18:01:15.198Z,60.80
2018-02-27T18:03:45.972Z,60.96
2018-02-27T18:06:15.963Z,61.27
2018-02-27T18:08:45.835Z,61.13
2018-02-27T18:11:15.694Z,61.56
2018-02-27T18:13:45.537Z,61.49
2018-02-27T18:16:15.400Z,61.93
2018-02-27T18:18:46.089Z,62.51
2018-02-27T18:21:15.917Z,62.52
2018-02-27T18:23:45.799Z,62.89
2018-02-27T18:26:15.816Z,63.51
2018-02-27T18:28:45.877Z,64.06
2018-02-27T18:31:15.841Z,63.85
2018-02-27T18:33:45.966Z,63.96
2018-02-27T18:36:15.851Z,63.77
2018-02-27T18:38:45.940Z,63.90
2018-02-27T18:41:16.035Z,64.23
2018-02-27T18:43:46.202Z,64.83
2018-02-27T18:46:16.293Z,65.58
2018-02-27T18:48:46.338Z,66.07
2018-02-27T18:51:16.267Z,66.49
2018-02-27T18:53:45.683Z,67.12
2018-02-27T18:56:14.966Z,67.31
2018-02-27T18:58:45.617Z,67.35
2018-02-27T19:01:17.413Z,67.98
2018-02-27T19:03:48.196Z,68.43
2018-02-27T19:06:18.149Z,68.54
2018-02-27T19:08:48.133Z,68.72
2018-02-27T19:11:18.060Z,69.06
2018-02-27T19:13:48.891Z,69.25
2018-02-27T19:16:18.785Z,69.61
2018-02-27T19:18:48.983Z,70.30
2018-02-27T19:21:19.638Z,70.43
2018-02-27T19:23:49.605Z,70.54
2018-02-27T19:26:20.017Z,70.76
2018-02-27T19:28:49.980Z,71.20
2018-02-27T19:31:20.506Z,71.23
2018-02-27T19:33:50.788Z,71.16
2018-02-27T19:36:21.816Z,71.18
2018-02-27T19:38:51.853Z,71.25
2018-02-27T19:41:22.514Z,71.16
2018-02-27T19:43:53.325Z,70.73
2018-02-27T19:46:23.164Z,70.09
2018-02-27T19:48:54.583Z,69.98
2018-02-27T19:51:25.039Z,69.54
2018-02-27T19:53:55.128Z,69.57
2018-02-27T19:56:25.121Z,69.71
2018-02-27T19:58:56.561Z,70.01
2018-02-27T20:01:26.494Z,70.50
2018-02-27T20:03:56.594Z,72.19
2018-02-27T20:06:25.954Z,73.02
2018-02-27T20:08:56.849Z,73.19
2018-02-27T20:11:27.267Z,73.85
2018-02-27T20:13:56.943Z,74.00
2018-02-27T20:16:27.543Z,74.47
2018-02-27T20:18:56.904Z,75.05
2018-02-27T20:21:27.618Z,75.11
2018-02-27T20:24:02.920Z,74.48
2018-02-27T20:26:32.856Z,74.44
2018-02-27T20:29:07.970Z,74.50
2018-02-27T20:31:38.040Z,74.80
2018-02-27T20:34:07.462Z,74.27
2018-02-27T20:36:37.308Z,75.03
2018-02-27T20:39:29.000Z,74.15
2018-02-27T20:41:58.889Z,73.97
2018-02-27T20:44:28.870Z,73.70
2018-02-27T20:46:59.199Z,73.64
2018-02-27T20:49:29.396Z,73.46
2018-02-27T20:51:58.699Z,74.33
2018-02-27T20:54:28.840Z,74.21
2018-02-27T20:56:58.887Z,74.47
2018-02-27T20:59:28.295Z,75.10
2018-02-27T21:01:57.699Z,75.47
2018-02-27T21:04:27.246Z,75.34
2018-02-27T21:06:56.693Z,75.92
2018-02-27T21:09:26.093Z,75.45
2018-02-27T21:11:55.438Z,75.70
2018-02-27T21:14:24.740Z,76.36
2018-02-27T21:16:54.303Z,76.41
2018-02-27T21:19:23.596Z,77.11
2018-02-27T21:21:53.795Z,77.04
2018-02-27T21:24:23.833Z,78.00
2018-02-27T21:26:54.026Z,78.58
2018-02-27T21:29:23.369Z,78.71
2018-02-27T21:31:52.651Z,78.27
2018-02-27T21:34:22.820Z,77.88
2018-02-27T21:36:52.133Z,77.32
2018-02-27T21:39:21.551Z,76.76
2018-02-27T21:41:50.890Z,76.63
2018-02-27T21:44:20.237Z,76.35
2018-02-27T21:46:49.550Z,76.00
2018-02-27T21:49:18.943Z,75.14
2018-02-27T21:51:48.230Z,74.31
2018-02-27T21:54:18.423Z,73.80
2018-02-27T21:56:47.688Z,74.04
2018-02-27T21:59:17.869Z,74.21
2018-02-27T22:01:47.151Z,73.60
2018-02-27T22:04:16.326Z,73.74
2018-02-27T22:06:46.266Z,73.71
2018-02-27T22:09:15.366Z,74.24
2018-02-27T22:11:44.484Z,74.60
2018-02-27T22:14:13.469Z,76.38
2018-02-27T22:16:42.283Z,77.65
2018-02-27T22:19:10.893Z,77.37
2018-02-27T22:21:39.304Z,77.11
2018-02-27T22:24:07.647Z,77.06
2018-02-27T22:26:35.928Z,77.49
2018-02-27T22:29:04.196Z,78.01
2018-02-27T22:31:33.228Z,77.73
2018-02-27T22:34:01.493Z,77.68
2018-02-27T22:36:29.776Z,77.33
2018-02-27T22:38:58.057Z,77.06
2018-02-27T22:41:26.343Z,77.53
2018-02-27T22:43:54.607Z,77.93
2018-02-27T22:46:22.891Z,77.55
2018-02-27T22:48:51.156Z,77.78
2018-02-27T22:51:19.496Z,77.18
2018-02-27T22:53:47.756Z,77.54
2018-02-27T22:56:16.038Z,77.70
2018-02-27T22:58:44.313Z,77.32
2018-02-27T23:01:12.577Z,76.62
2018-02-27T23:03:41.616Z,76.36
2018-02-27T23:06:09.896Z,76.77
2018-02-27T23:08:38.152Z,76.68
2018-02-27T23:11:06.416Z,75.81
2018-02-27T23:13:34.701Z,75.59
2018-02-27T23:16:02.966Z,75.46
2018-02-27T23:18:31.228Z,75.09
2018-02-27T23:21:00.278Z,74.82
2018-02-27T23:23:28.547Z,75.07
2018-02-27T23:26:05.390Z,74.75
2018-02-27T23:28:35.152Z,74.04
2018-02-27T23:31:03.497Z,73.83
2018-02-27T23:33:42.839Z,73.22
2018-02-27T23:36:11.099Z,73.02
2018-02-27T23:38:39.368Z,73.60
2018-02-27T23:41:07.648Z,73.65
2018-02-27T23:43:35.942Z,72.93
2018-02-27T23:46:04.231Z,72.60
2018-02-27T23:48:32.490Z,72.74
2018-02-27T23:51:00.766Z,72.36
2018-02-27T23:53:29.025Z,72.15
2018-02-27T23:55:57.297Z,72.41
2018-02-27T23:58:25.588Z,72.68
